Time;durP1;ratioP1;P1;durP2;ratioP2;P2;SDS_P1;SDS_P2;PMS_P1;PMS_P2;Temp;Humidity;BMP_temperature;BMP_pressure;BME280_temperature;BME280_humidity;BME280_pressure;Samples;Min_cycle;Max_cycle;Signal;HPM_P1;HPM_P2
2023/10/08 00:00:45;;;;;;;7.80;3.70;;;17.90;99.90;;;;;;5014224;28;20484;-64
2023/10/08 00:03:13;;;;;;;4.30;3.77;;;17.90;99.90;;;;;;5014589;28;20460;-64
2023/10/08 00:05:40;;;;;;;4.20;3.23;;;17.90;99.90;;;;;;5014439;28;20457;-64
2023/10/08 00:08:10;;;;;;;4.33;3.30;;;17.90;99.90;;;;;;5014001;28;20981;-64
2023/10/08 00:10:37;;;;;;;4.07;3.40;;;17.80;99.90;;;;;;5014277;28;20448;-64
2023/10/08 00:13:07;;;;;;;4.33;3.93;;;17.90;99.90;;;;;;5013545;28;20450;-64
2023/10/08 00:15:36;;;;;;;3.73;3.03;;;17.90;99.90;;;;;;5014560;28;20453;-64
2023/10/08 00:18:04;;;;;;;4.37;3.77;;;17.90;99.90;;;;;;5013968;28;20508;-64
2023/10/08 00:20:37;;;;;;;5.43;3.73;;;17.90;99.90;;;;;;5013994;28;20485;-64
2023/10/08 00:23:07;;;;;;;4.10;3.37;;;17.90;99.90;;;;;;5014210;28;20984;-64
2023/10/08 00:25:40;;;;;;;4.10;3.30;;;17.90;99.90;;;;;;5013913;28;20515;-64
2023/10/08 00:28:11;;;;;;;4.97;3.87;;;17.90;99.90;;;;;;5013745;28;20469;-64
2023/10/08 00:30:40;;;;;;;4.73;3.80;;;17.80;99.90;;;;;;5014121;28;20478;-64
2023/10/08 00:33:08;;;;;;;4.50;3.83;;;17.90;99.90;;;;;;5013818;28;20533;-65
2023/10/08 00:35:38;;;;;;;4.10;3.70;;;17.80;99.90;;;;;;5013810;28;20507;-64
2023/10/08 00:38:08;;;;;;;5.60;3.57;;;17.80;99.90;;;;;;5013675;28;20473;-64
2023/10/08 00:40:40;;;;;;;3.80;3.30;;;17.90;99.90;;;;;;5013859;28;20497;-64
2023/10/08 00:43:10;;;;;;;6.60;3.70;;;17.80;99.90;;;;;;5013949;28;20499;-64
2023/10/08 00:45:43;;;;;;;4.43;4.00;;;17.80;99.90;;;;;;5013733;28;20449;-64
2023/10/08 00:48:11;;;;;;;6.13;3.60;;;17.80;99.90;;;;;;5013256;28;20989;-64
2023/10/08 00:50:43;;;;;;;5.30;3.63;;;17.80;99.90;;;;;;5013502;28;20457;-64
2023/10/08 00:53:17;;;;;;;4.70;3.77;;;17.80;99.90;;;;;;5013767;28;20448;-64
2023/10/08 00:55:53;;;;;;;4.30;3.60;;;17.70;99.90;;;;;;5013630;28;20494;-64
2023/10/08 00:58:24;;;;;;;4.20;3.57;;;17.70;99.90;;;;;;5012711;28;20996;-64
2023/10/08 01:00:59;;;;;;;5.10;3.80;;;17.70;99.90;;;;;;5012969;28;20489;-64
2023/10/08 01:03:27;;;;;;;4.20;3.80;;;17.70;99.90;;;;;;5013183;28;20459;-64
2023/10/08 01:05:54;;;;;;;5.07;3.50;;;17.70;99.90;;;;;;5013182;28;20458;-64
2023/10/08 01:08:34;;;;;;;6.10;5.50;;;17.70;99.90;;;;;;5012954;28;20908;-64
2023/10/08 01:11:17;;;;;;;4.07;3.73;;;17.70;99.90;;;;;;5013148;28;20949;-64
2023/10/08 01:13:46;;;;;;;6.20;3.90;;;17.70;99.90;;;;;;5013428;28;20519;-64
2023/10/08 01:16:13;;;;;;;4.23;3.83;;;17.70;99.90;;;;;;5013285;28;20538;-64
2023/10/08 01:18:47;;;;;;;4.33;3.80;;;17.70;99.90;;;;;;5012763;28;21061;-64
2023/10/08 01:21:29;;;;;;;7.00;4.37;;;17.70;99.90;;;;;;5012882;28;20488;-64
2023/10/08 01:24:00;;;;;;;4.73;4.33;;;17.70;99.90;;;;;;5012178;28;20484;-64
2023/10/08 01:26:29;;;;;;;5.57;3.50;;;17.70;99.90;;;;;;5011527;28;20457;-64
2023/10/08 01:28:56;;;;;;;10.87;4.20;;;17.70;99.90;;;;;;5012381;28;20859;-64
2023/10/08 01:31:23;;;;;;;4.50;3.73;;;17.70;99.90;;;;;;5010818;28;20528;-64
2023/10/08 01:33:56;;;;;;;5.10;3.50;;;17.70;99.90;;;;;;5012358;28;21048;-64
2023/10/08 01:36:23;;;;;;;4.40;3.80;;;17.70;99.90;;;;;;5013018;28;20515;-64
2023/10/08 01:38:50;;;;;;;4.40;4.00;;;17.70;99.90;;;;;;5012336;28;20472;-64
2023/10/08 01:41:29;;;;;;;5.40;3.83;;;17.70;99.90;;;;;;5012834;28;20498;-64
2023/10/08 01:43:57;;;;;;;4.50;4.10;;;17.70;99.90;;;;;;5012625;28;20453;-64
2023/10/08 01:46:26;;;;;;;5.60;4.40;;;17.70;99.90;;;;;;5013021;28;20464;-64
2023/10/08 01:49:02;;;;;;;3.43;3.13;;;17.70;99.90;;;;;;5012190;28;20502;-64
2023/10/08 01:51:37;;;;;;;6.90;3.97;;;17.60;99.90;;;;;;5012689;28;20949;-64
2023/10/08 01:54:10;;;;;;;6.00;4.07;;;17.70;99.90;;;;;;5012468;28;20946;-65
2023/10/08 01:56:41;;;;;;;4.50;4.10;;;17.70;99.90;;;;;;5012201;28;20945;-64
2023/10/08 01:59:09;;;;;;;5.50;4.20;;;17.70;99.90;;;;;;5011819;28;20491;-64
2023/10/08 02:01:36;;;;;;;6.67;3.93;;;17.60;99.90;;;;;;5012283;28;20495;-64
2023/10/08 02:04:04;;;;;;;5.57;3.63;;;17.60;99.90;;;;;;5012121;28;20437;-64
2023/10/08 02:06:31;;;;;;;7.37;4.30;;;17.60;99.90;;;;;;5012400;28;20839;-64
2023/10/08 02:08:58;;;;;;;3.93;3.53;;;17.70;99.90;;;;;;5011720;28;20473;-64
2023/10/08 02:11:27;;;;;;;7.67;4.07;;;17.60;99.90;;;;;;5012189;28;20481;-64
2023/10/08 02:13:55;;;;;;;4.53;4.10;;;17.60;99.90;;;;;;5012300;28;20449;-64
2023/10/08 02:16:23;;;;;;;5.83;3.83;;;17.60;99.90;;;;;;5012301;28;20453;-64
2023/10/08 02:18:51;;;;;;;5.00;4.50;;;17.70;99.90;;;;;;5011634;28;20472;-64
2023/10/08 02:21:18;;;;;;;6.23;4.30;;;17.70;99.90;;;;;;5012093;28;20787;-64
2023/10/08 02:23:44;;;;;;;6.10;4.40;;;17.60;99.90;;;;;;5012132;28;20453;-64
2023/10/08 02:26:13;;;;;;;3.93;3.50;;;17.60;99.90;;;;;;5012158;28;20537;-64
2023/10/08 02:28:41;;;;;;;3.90;3.50;;;17.60;99.90;;;;;;5011575;28;20469;-64
2023/10/08 02:31:10;;;;;;;4.20;3.60;;;17.60;99.90;;;;;;5011845;28;20960;-64
2023/10/08 02:33:37;;;;;;;7.67;5.00;;;17.50;99.90;;;;;;5012049;28;20455;-64
2023/10/08 02:36:05;;;;;;;8.23;4.10;;;17.50;99.90;;;;;;5011530;28;20461;-64
2023/10/08 02:38:38;;;;;;;5.77;4.07;;;17.50;99.90;;;;;;5011513;28;20475;-64
2023/10/08 02:41:07;;;;;;;4.73;4.23;;;17.40;99.90;;;;;;5011808;28;20500;-64
2023/10/08 02:43:36;;;;;;;6.30;4.80;;;17.40;99.90;;;;;;5011961;28;20453;-64
2023/10/08 02:46:06;;;;;;;6.63;4.20;;;17.40;99.90;;;;;;5011705;28;21024;-62
2023/10/08 02:48:35;;;;;;;4.77;3.90;;;17.30;99.90;;;;;;5011593;28;20469;-62
2023/10/08 02:51:11;;;;;;;5.00;4.00;;;17.30;99.90;;;;;;5011863;28;20818;-62
2023/10/08 02:53:41;;;;;;;5.73;4.40;;;17.20;99.90;;;;;;5011946;28;20511;-62
2023/10/08 02:56:12;;;;;;;4.87;4.07;;;17.20;99.90;;;;;;5011932;28;20496;-62
2023/10/08 02:58:39;;;;;;;7.37;4.33;;;17.20;99.90;;;;;;5011339;28;20492;-61
2023/10/08 03:01:12;;;;;;;7.07;4.20;;;17.20;99.90;;;;;;5011600;28;20489;-62
2023/10/08 03:03:41;;;;;;;5.47;3.50;;;17.20;99.90;;;;;;5011606;28;20449;-62
2023/10/08 03:06:11;;;;;;;7.70;3.57;;;17.20;99.90;;;;;;5011870;28;20458;-62
2023/10/08 03:08:40;;;;;;;4.00;3.70;;;17.10;99.90;;;;;;5011434;28;20887;-62
2023/10/08 03:11:16;;;;;;;4.30;3.70;;;17.10;99.90;;;;;;5011662;28;20834;-62
2023/10/08 03:13:51;;;;;;;7.87;4.07;;;17.10;99.90;;;;;;5011611;28;20456;-62
2023/10/08 03:16:21;;;;;;;4.43;3.83;;;17.10;99.90;;;;;;5010634;28;20456;-62
2023/10/08 03:18:51;;;;;;;6.20;3.40;;;17.10;99.90;;;;;;5010885;28;20479;-62
2023/10/08 03:21:22;;;;;;;4.60;4.17;;;17.10;99.90;;;;;;5011556;28;20563;-62
2023/10/08 03:23:50;;;;;;;6.47;3.60;;;17.10;99.90;;;;;;5011378;28;20454;-62
2023/10/08 03:26:33;;;;;;;7.00;3.53;;;17.20;99.90;;;;;;5011422;28;20456;-62
2023/10/08 03:29:07;;;;;;;5.00;4.23;;;17.20;99.90;;;;;;5011370;28;20567;-61
2023/10/08 03:31:49;;;;;;;7.73;4.17;;;17.20;99.90;;;;;;5011458;28;20445;-62
2023/10/08 03:34:19;;;;;;;6.07;3.93;;;17.20;99.90;;;;;;5011562;28;20824;-62
2023/10/08 03:36:49;;;;;;;3.80;3.33;;;17.20;99.90;;;;;;5011364;28;20475;-62
2023/10/08 03:39:18;;;;;;;5.33;4.33;;;17.20;99.90;;;;;;5011555;28;20534;-62
2023/10/08 03:41:59;;;;;;;6.83;4.03;;;17.20;99.90;;;;;;5011203;28;20489;-62
2023/10/08 03:44:29;;;;;;;6.17;4.17;;;17.20;99.90;;;;;;5011710;28;20456;-62
2023/10/08 03:46:57;;;;;;;4.83;3.70;;;17.20;99.90;;;;;;5011610;28;20479;-62
2023/10/08 03:49:28;;;;;;;4.50;4.10;;;17.20;99.90;;;;;;5013803;28;21018;-62
2023/10/08 03:51:57;;;;;;;4.27;3.87;;;17.20;99.90;;;;;;5014817;28;20451;-64
2023/10/08 03:54:29;;;;;;;4.87;4.40;;;17.20;99.90;;;;;;5014774;28;20460;-64
2023/10/08 03:56:57;;;;;;;6.50;4.47;;;17.20;99.90;;;;;;5014578;28;20953;-64
2023/10/08 03:59:31;;;;;;;5.03;4.60;;;17.10;99.90;;;;;;5014098;28;20487;-64
2023/10/08 04:02:09;;;;;;;6.27;4.63;;;17.10;99.90;;;;;;5014404;28;20496;-64
2023/10/08 04:04:50;;;;;;;4.90;4.40;;;17.00;99.90;;;;;;5014600;28;20460;-64
2023/10/08 04:07:39;;;;;;;5.37;4.13;;;16.90;99.90;;;;;;5014417;28;20948;-64
2023/10/08 04:10:34;;;;;;;4.43;3.60;;;16.90;99.90;;;;;;5014269;28;20511;-64
2023/10/08 04:13:01;;;;;;;7.97;5.23;;;16.80;99.90;;;;;;5014378;28;20453;-64
2023/10/08 04:15:28;;;;;;;8.73;3.83;;;16.70;99.90;;;;;;5014344;28;20449;-64
2023/10/08 04:17:56;;;;;;;4.20;3.90;;;16.60;99.90;;;;;;5013827;28;20444;-64
2023/10/08 04:20:38;;;;;;;5.30;4.20;;;16.60;99.90;;;;;;5014199;28;20937;-64
2023/10/08 04:23:13;;;;;;;4.43;3.80;;;16.50;99.90;;;;;;5014312;28;20493;-64
2023/10/08 04:25:42;;;;;;;7.43;4.77;;;16.40;99.90;;;;;;5014169;28;20484;-64
2023/10/08 04:28:14;;;;;;;4.93;3.80;;;16.30;99.90;;;;;;5013744;28;20484;-64
2023/10/08 04:30:42;;;;;;;4.87;4.47;;;16.30;99.90;;;;;;5014062;28;20483;-64
2023/10/08 04:33:12;;;;;;;4.70;4.20;;;16.20;99.90;;;;;;5013811;28;20495;-64
2023/10/08 04:35:48;;;;;;;6.33;4.53;;;16.10;99.90;;;;;;5014094;28;20457;-64
2023/10/08 04:38:17;;;;;;;7.70;5.13;;;16.00;99.90;;;;;;5013672;28;20465;-64
2023/10/08 04:40:48;;;;;;;5.37;4.87;;;16.00;99.90;;;;;;5013690;28;20486;-63
2023/10/08 04:43:22;;;;;;;5.10;3.60;;;16.00;99.90;;;;;;5013874;28;20451;-64
2023/10/08 04:45:50;;;;;;;4.80;4.40;;;15.90;99.90;;;;;;5013743;28;20513;-64
2023/10/08 04:48:20;;;;;;;4.80;4.37;;;15.90;99.90;;;;;;5013304;28;20483;-64
2023/10/08 04:50:57;;;;;;;5.23;3.90;;;15.80;99.90;;;;;;5013654;28;20496;-64
2023/10/08 04:53:31;;;;;;;5.73;4.57;;;15.80;99.90;;;;;;5013760;28;20837;-64
2023/10/08 04:56:02;;;;;;;5.70;4.30;;;15.80;99.90;;;;;;5013446;28;20968;-64
2023/10/08 04:58:33;;;;;;;6.50;4.57;;;15.70;99.90;;;;;;5012620;28;20519;-64
2023/10/08 05:01:17;;;;;;;6.10;4.10;;;15.70;99.90;;;;;;5036134;23;20496;-62
2023/10/08 05:03:55;;;;;;;3.90;3.47;;;15.60;99.90;;;;;;4993657;28;20453;-63
2023/10/08 05:06:49;;;;;;;6.40;4.80;;;15.60;99.90;;;;;;4993580;28;20547;-63
2023/10/08 05:09:23;;;;;;;4.63;4.20;;;15.50;99.90;;;;;;4993313;28;20517;-63
2023/10/08 05:14:38;;;;;;;8.20;5.17;;;15.40;99.90;;;;;;4992849;28;20442;-63
2023/10/08 05:17:11;;;;;;;5.27;4.73;;;15.30;99.90;;;;;;4993263;28;20448;-62
2023/10/08 05:20:01;;;;;;;7.77;3.93;;;15.30;99.90;;;;;;4993081;28;20460;-63
2023/10/08 05:22:43;;;;;;;5.07;4.60;;;15.30;99.90;;;;;;4993167;28;20522;-62
2023/10/08 05:25:24;;;;;;;5.17;4.77;;;15.20;99.90;;;;;;4993045;28;20545;-63
2023/10/08 05:27:58;;;;;;;6.03;4.83;;;15.20;99.90;;;;;;4992689;28;20482;-63
2023/10/08 05:30:37;;;;;;;5.80;4.50;;;15.20;99.90;;;;;;4993040;28;20449;-63
2023/10/08 05:33:12;;;;;;;8.90;5.30;;;15.20;99.90;;;;;;4993031;28;20823;-62
2023/10/08 05:35:49;;;;;;;5.07;4.50;;;15.20;99.90;;;;;;4992880;28;20456;-63
2023/10/08 05:41:27;;;;;;;5.87;5.40;;;15.20;99.90;;;;;;5010667;28;20851;-64
2023/10/08 05:46:51;;;;;;;7.27;6.57;;;15.20;99.90;;;;;;5011846;28;20955;-63
2023/10/08 05:55:14;;;;;;;5.50;4.87;;;15.20;99.90;;;;;;5012071;28;20513;-65
2023/10/08 05:57:46;;;;;;;6.77;6.17;;;15.20;99.90;;;;;;5011981;28;20508;-65
2023/10/08 06:03:31;;;;;;;5.47;4.23;;;15.20;99.90;;;;;;5011900;28;21013;-66
2023/10/08 06:09:04;;;;;;;6.10;5.00;;;15.30;99.90;;;;;;5011686;28;20558;-63
2023/10/08 06:11:41;;;;;;;7.23;4.60;;;15.30;99.90;;;;;;5011085;28;20829;-63
2023/10/08 06:14:16;;;;;;;6.80;6.03;;;15.30;99.90;;;;;;5011719;28;21058;-63
2023/10/08 06:16:44;;;;;;;6.73;5.90;;;15.30;99.90;;;;;;5011894;28;20546;-63
2023/10/08 06:19:12;;;;;;;5.70;4.83;;;15.30;99.90;;;;;;5011547;28;20453;-63
2023/10/08 06:21:39;;;;;;;5.33;4.57;;;15.30;99.90;;;;;;5011560;28;20865;-63
2023/10/08 06:24:09;;;;;;;9.10;5.40;;;15.40;99.90;;;;;;5011514;28;20456;-63
2023/10/08 06:26:42;;;;;;;4.80;4.30;;;15.40;99.90;;;;;;5011811;28;20456;-63
2023/10/08 06:29:18;;;;;;;6.43;5.20;;;15.40;99.90;;;;;;5011412;28;20453;-65
2023/10/08 06:31:51;;;;;;;8.10;5.57;;;15.50;99.90;;;;;;5011506;28;20506;-65
2023/10/08 06:34:21;;;;;;;6.30;4.80;;;15.40;99.90;;;;;;5011504;28;20448;-65
2023/10/08 06:36:50;;;;;;;6.10;5.57;;;15.50;99.90;;;;;;5011476;28;20937;-65
2023/10/08 06:39:19;;;;;;;5.80;4.83;;;15.50;99.90;;;;;;5011267;28;20452;-65
2023/10/08 06:41:48;;;;;;;5.83;4.90;;;15.50;99.90;;;;;;5011540;28;20493;-65
2023/10/08 06:44:15;;;;;;;7.30;5.10;;;15.60;99.90;;;;;;5011523;28;20444;-64
2023/10/08 06:46:42;;;;;;;6.03;5.13;;;15.60;99.90;;;;;;5011410;28;20448;-65
2023/10/08 06:49:13;;;;;;;9.43;7.50;;;15.70;99.90;;;;;;5011043;28;20534;-65
2023/10/08 06:51:41;;;;;;;6.80;5.83;;;15.70;99.90;;;;;;5011432;28;20495;-65
2023/10/08 06:54:10;;;;;;;9.20;7.90;;;15.70;99.90;;;;;;5011408;28;20989;-65
2023/10/08 06:56:38;;;;;;;6.00;5.00;;;15.80;99.90;;;;;;5011492;28;20875;-65
2023/10/08 06:59:09;;;;;;;7.47;6.37;;;15.90;99.90;;;;;;5011096;28;20455;-65
2023/10/08 07:01:39;;;;;;;5.80;5.20;;;16.00;99.90;;;;;;5011144;28;20484;-65
2023/10/08 07:04:11;;;;;;;5.43;4.37;;;16.10;99.90;;;;;;5011655;28;20463;-65
2023/10/08 07:06:39;;;;;;;5.97;5.37;;;16.10;99.90;;;;;;5011441;28;20455;-65
2023/10/08 07:09:13;;;;;;;6.60;5.27;;;16.20;99.90;;;;;;5011041;28;20502;-65
2023/10/08 07:11:44;;;;;;;7.80;5.87;;;16.30;99.90;;;;;;5011158;28;20479;-65
2023/10/08 07:14:13;;;;;;;7.00;4.83;;;16.40;99.90;;;;;;5011330;28;20552;-65
2023/10/08 07:16:41;;;;;;;6.67;5.57;;;16.50;99.90;;;;;;5011323;28;20887;-63
2023/10/08 07:19:17;;;;;;;5.33;4.80;;;16.60;99.90;;;;;;5009870;28;20466;-63
2023/10/08 07:21:45;;;;;;;7.70;4.30;;;16.60;99.90;;;;;;5011443;28;20525;-63
2023/10/08 07:24:15;;;;;;;5.37;4.87;;;16.70;99.90;;;;;;5013896;28;20470;-64
2023/10/08 07:26:46;;;;;;;5.90;5.30;;;16.70;99.90;;;;;;5014075;28;20456;-63
2023/10/08 07:29:17;;;;;;;6.03;4.37;;;16.80;99.90;;;;;;5014560;28;20458;-63
2023/10/08 07:31:48;;;;;;;5.10;4.60;;;16.80;99.90;;;;;;5014804;28;20465;-65
2023/10/08 07:34:25;;;;;;;7.87;5.60;;;16.90;99.90;;;;;;5014744;28;20866;-65
2023/10/08 07:36:54;;;;;;;7.60;5.87;;;16.90;99.90;;;;;;5014465;28;20482;-65
2023/10/08 07:39:26;;;;;;;7.43;5.27;;;17.00;99.90;;;;;;5014250;28;20976;-65
2023/10/08 07:41:55;;;;;;;7.73;4.30;;;17.00;99.90;;;;;;5014596;28;20488;-66
2023/10/08 07:44:23;;;;;;;4.57;4.03;;;17.10;99.90;;;;;;5014602;28;20449;-65
2023/10/08 07:46:51;;;;;;;5.50;5.00;;;17.10;99.90;;;;;;5014553;28;20535;-65
2023/10/08 07:49:18;;;;;;;4.70;4.30;;;17.20;99.90;;;;;;5013944;28;20863;-65
2023/10/08 07:51:50;;;;;;;4.43;4.03;;;17.30;99.90;;;;;;5014166;28;20559;-65
2023/10/08 07:54:19;;;;;;;5.17;4.27;;;17.30;99.90;;;;;;5014332;28;20453;-66
2023/10/08 07:56:47;;;;;;;5.13;4.57;;;17.40;99.90;;;;;;5014341;28;20507;-65
2023/10/08 07:59:14;;;;;;;5.30;4.80;;;17.50;99.90;;;;;;5013914;28;20459;-66
2023/10/08 08:01:43;;;;;;;6.03;5.17;;;17.60;99.90;;;;;;5013878;28;20508;-63
2023/10/08 08:04:14;;;;;;;6.50;4.77;;;17.70;99.90;;;;;;5014202;28;20543;-63
2023/10/08 08:06:41;;;;;;;6.00;4.90;;;17.80;99.90;;;;;;5014342;28;20449;-63
2023/10/08 08:09:17;;;;;;;6.83;4.93;;;17.90;99.90;;;;;;5013758;28;20839;-63
2023/10/08 08:11:46;;;;;;;8.83;5.60;;;17.90;99.90;;;;;;5014043;28;20556;-63
2023/10/08 08:14:16;;;;;;;6.30;5.80;;;18.00;99.90;;;;;;5013899;28;20457;-63
2023/10/08 08:16:47;;;;;;;7.53;4.80;;;18.00;99.90;;;;;;5014187;28;20442;-64
2023/10/08 08:19:15;;;;;;;6.37;4.93;;;18.00;99.90;;;;;;5013430;28;20444;-63
2023/10/08 08:21:45;;;;;;;5.13;4.53;;;18.10;99.90;;;;;;5011929;28;20471;-63
2023/10/08 08:24:12;;;;;;;18.20;16.80;;;18.10;99.90;;;;;;5013195;28;20493;-63
2023/10/08 08:26:44;;;;;;;6.47;5.33;;;18.20;99.90;;;;;;5012872;28;20540;-63
2023/10/08 08:29:15;;;;;;;5.63;4.83;;;18.20;99.90;;;;;;5013252;28;20456;-63
2023/10/08 08:31:46;;;;;;;7.77;5.17;;;18.20;99.90;;;;;;5013443;28;20501;-64
2023/10/08 08:34:19;;;;;;;5.60;5.10;;;18.20;99.90;;;;;;5012512;28;20831;-63
2023/10/08 08:36:48;;;;;;;5.83;4.73;;;18.20;99.90;;;;;;5013346;28;20460;-63
2023/10/08 08:39:28;;;;;;;5.80;4.87;;;18.30;99.90;;;;;;5012820;28;20945;-63
2023/10/08 08:42:00;;;;;;;4.73;4.33;;;18.20;99.90;;;;;;5013207;28;20512;-63
2023/10/08 08:44:31;;;;;;;5.60;5.10;;;18.20;99.90;;;;;;5013120;28;20472;-63
2023/10/08 08:47:04;;;;;;;6.63;4.03;;;18.20;99.90;;;;;;5013091;28;20980;-63
2023/10/08 08:49:33;;;;;;;6.90;4.67;;;18.20;99.90;;;;;;5012686;28;20464;-63
2023/10/08 08:52:01;;;;;;;5.43;3.87;;;18.20;99.90;;;;;;5012725;28;21145;-63
2023/10/08 08:54:30;;;;;;;7.30;5.17;;;18.20;99.90;;;;;;5012957;28;20453;-63
2023/10/08 08:56:57;;;;;;;6.30;4.60;;;18.30;99.90;;;;;;5012977;28;20453;-64
2023/10/08 08:59:25;;;;;;;4.70;4.30;;;18.30;99.90;;;;;;5012482;28;20446;-63
2023/10/08 09:01:54;;;;;;;5.30;4.60;;;18.30;99.90;;;;;;5012605;28;20569;-63
2023/10/08 09:04:30;;;;;;;6.40;4.50;;;18.30;99.90;;;;;;5012376;28;20583;-63
2023/10/08 09:06:57;;;;;;;6.67;4.53;;;18.30;99.90;;;;;;5012926;28;20449;-63
2023/10/08 09:09:25;;;;;;;6.20;4.80;;;18.40;99.90;;;;;;5012425;28;20945;-63
2023/10/08 09:11:54;;;;;;;4.60;4.20;;;18.40;99.90;;;;;;5012496;28;20481;-63
2023/10/08 09:14:22;;;;;;;8.77;5.10;;;18.40;99.90;;;;;;5012420;28;20525;-63
2023/10/08 09:16:49;;;;;;;5.97;4.87;;;18.50;99.90;;;;;;5012292;28;20461;-63
2023/10/08 09:19:18;;;;;;;7.30;4.70;;;18.50;99.90;;;;;;5011670;28;20891;-62
2023/10/08 09:22:02;;;;;;;5.23;4.53;;;18.50;99.90;;;;;;5011798;28;20475;-63
2023/10/08 09:24:29;;;;;;;7.57;5.53;;;18.60;99.90;;;;;;5011947;28;20521;-62
2023/10/08 09:26:58;;;;;;;8.73;6.00;;;18.60;99.90;;;;;;5012400;28;20484;-64
2023/10/08 09:29:25;;;;;;;9.33;6.10;;;18.70;99.90;;;;;;5011774;28;21052;-63
2023/10/08 09:31:55;;;;;;;5.70;4.23;;;18.70;99.90;;;;;;5012292;28;20501;-64
2023/10/08 09:34:23;;;;;;;5.87;4.47;;;18.80;99.90;;;;;;5012075;28;20450;-64
2023/10/08 09:36:53;;;;;;;5.93;5.10;;;18.90;99.90;;;;;;5012141;28;20460;-63
2023/10/08 09:39:23;;;;;;;8.53;4.90;;;18.90;99.90;;;;;;5011817;28;20449;-63
2023/10/08 09:41:53;;;;;;;7.37;5.07;;;19.00;99.90;;;;;;5011742;28;20474;-63
2023/10/08 09:44:20;;;;;;;8.37;5.87;;;19.00;99.90;;;;;;5011829;28;20497;-63
2023/10/08 09:46:53;;;;;;;6.00;4.97;;;19.00;99.90;;;;;;5010822;28;20932;-64
2023/10/08 09:49:26;;;;;;;5.37;4.87;;;19.00;99.90;;;;;;5012205;28;20450;-64
2023/10/08 09:51:56;;;;;;;8.37;6.27;;;19.10;99.90;;;;;;5011734;28;20557;-63
2023/10/08 09:54:31;;;;;;;6.83;4.60;;;19.10;99.90;;;;;;5011468;28;20529;-64
2023/10/08 09:57:00;;;;;;;8.47;6.20;;;19.10;99.90;;;;;;5011914;28;20450;-63
2023/10/08 09:59:28;;;;;;;7.83;5.90;;;19.20;99.90;;;;;;5011374;28;20530;-63
2023/10/08 10:01:59;;;;;;;5.87;5.10;;;19.10;99.90;;;;;;5011479;28;20481;-63
2023/10/08 10:04:28;;;;;;;6.03;5.40;;;19.10;99.90;;;;;;5011266;28;20489;-63
2023/10/08 10:06:57;;;;;;;12.37;5.27;;;19.00;99.90;;;;;;5011423;28;20453;-62
2023/10/08 10:09:26;;;;;;;5.80;5.10;;;19.00;99.90;;;;;;5011381;28;20489;-63
2023/10/08 10:11:54;;;;;;;8.70;5.80;;;19.00;99.90;;;;;;5011597;28;20471;-63
2023/10/08 10:14:23;;;;;;;4.57;4.17;;;19.10;99.90;;;;;;5011315;28;20532;-64
2023/10/08 10:17:10;;;;;;;7.77;5.17;;;19.10;99.90;;;;;;5011377;28;20541;-63
2023/10/08 10:19:37;;;;;;;5.00;4.40;;;19.10;99.90;;;;;;5011122;28;20446;-63
2023/10/08 10:22:11;;;;;;;7.97;6.07;;;19.10;99.90;;;;;;5011426;28;20553;-63
2023/10/08 10:24:41;;;;;;;6.07;5.40;;;19.10;99.90;;;;;;5011089;28;20521;-62
2023/10/08 10:27:12;;;;;;;5.20;4.60;;;19.10;99.90;;;;;;5011000;28;20459;-63
2023/10/08 10:29:39;;;;;;;7.93;5.10;;;19.10;99.90;;;;;;5010848;28;20525;-63
2023/10/08 10:32:06;;;;;;;7.07;5.30;;;19.10;99.90;;;;;;5011251;28;20489;-63
2023/10/08 10:34:34;;;;;;;6.67;5.03;;;19.10;99.90;;;;;;5010165;28;20448;-63
2023/10/08 10:37:08;;;;;;;6.70;6.03;;;19.10;99.90;;;;;;5009351;28;20557;-63
2023/10/08 10:39:39;;;;;;;10.03;6.13;;;19.10;99.90;;;;;;5010541;28;20491;-63
2023/10/08 10:42:20;;;;;;;7.67;5.03;;;19.10;99.90;;;;;;5010611;28;20561;-63
2023/10/08 10:44:49;;;;;;;6.77;5.33;;;19.20;99.90;;;;;;5010298;28;20540;-63
2023/10/08 10:47:42;;;;;;;6.93;4.70;;;19.20;99.90;;;;;;5010440;28;20468;-63
2023/10/08 10:52:54;;;;;;;5.67;4.57;;;19.30;99.90;;;;;;5009602;28;20440;-64
2023/10/08 10:55:23;;;;;;;9.20;5.07;;;19.30;99.90;;;;;;5010571;28;20500;-63
2023/10/08 10:57:55;;;;;;;7.33;4.77;;;19.40;99.90;;;;;;5012731;28;20458;-64
2023/10/08 11:03:16;;;;;;;5.47;4.80;;;19.40;99.90;;;;;;5013974;28;20481;-63
2023/10/08 11:05:47;;;;;;;10.60;6.90;;;19.50;99.90;;;;;;4998859;28;20536;-63
2023/10/08 11:08:18;;;;;;;6.77;5.13;;;19.50;99.90;;;;;;5014187;28;20683;-63
2023/10/08 11:10:50;;;;;;;6.00;5.10;;;19.50;99.90;;;;;;5014239;28;20450;-63
2023/10/08 11:13:19;;;;;;;6.23;5.70;;;19.50;99.90;;;;;;5014162;28;20474;-63
2023/10/08 11:15:49;;;;;;;12.27;8.03;;;19.50;99.90;;;;;;5014016;28;20455;-64
2023/10/08 11:18:17;;;;;;;7.77;5.50;;;19.60;99.90;;;;;;5014002;28;20453;-65
2023/10/08 11:20:45;;;;;;;5.27;4.70;;;19.70;99.90;;;;;;5014179;28;20530;-64
2023/10/08 11:23:21;;;;;;;6.03;4.80;;;19.70;99.90;;;;;;5014097;28;20576;-63
2023/10/08 11:25:59;;;;;;;9.20;5.33;;;19.80;99.90;;;;;;5014030;28;20815;-64
2023/10/08 11:28:28;;;;;;;6.37;4.80;;;19.80;99.90;;;;;;5013721;28;20477;-64
2023/10/08 11:30:59;;;;;;;8.37;5.90;;;19.80;99.90;;;;;;5013687;28;20466;-63
2023/10/08 11:33:27;;;;;;;4.93;4.53;;;19.90;99.90;;;;;;5013410;28;20793;-63
2023/10/08 11:35:59;;;;;;;5.27;4.77;;;19.90;99.90;;;;;;5013829;28;20458;-63
2023/10/08 11:38:27;;;;;;;9.27;6.50;;;19.90;99.90;;;;;;5013502;28;20451;-63
2023/10/08 11:40:57;;;;;;;7.33;5.80;;;20.00;99.90;;;;;;5013660;28;20474;-63
2023/10/08 11:43:24;;;;;;;12.43;6.90;;;20.00;99.90;;;;;;5013732;28;20520;-63
2023/10/08 11:45:52;;;;;;;7.57;5.30;;;20.10;99.90;;;;;;5013604;28;20529;-64
2023/10/08 11:48:28;;;;;;;9.93;5.57;;;20.10;99.90;;;;;;5013066;28;20531;-63
2023/10/08 11:50:57;;;;;;;6.20;5.60;;;20.10;99.90;;;;;;5012543;28;20553;-64
2023/10/08 11:53:24;;;;;;;9.80;6.73;;;20.20;99.90;;;;;;5013016;28;20450;-63
2023/10/08 11:55:56;;;;;;;5.57;5.03;;;20.20;99.90;;;;;;5012867;28;20458;-63
2023/10/08 11:58:37;;;;;;;7.53;6.40;;;20.30;99.90;;;;;;5012966;28;20914;-63
2023/10/08 12:01:04;;;;;;;8.63;6.67;;;20.30;99.90;;;;;;5013088;28;21089;-64
2023/10/08 12:03:31;;;;;;;8.77;6.97;;;20.30;99.90;;;;;;5012595;28;20486;-64
2023/10/08 12:05:59;;;;;;;8.03;6.90;;;20.40;99.90;;;;;;5013003;28;20954;-64
2023/10/08 12:08:27;;;;;;;7.93;7.13;;;20.40;99.90;;;;;;5011159;28;20443;-64
2023/10/08 12:10:54;;;;;;;6.47;5.97;;;20.40;99.90;;;;;;5012670;28;20478;-63
2023/10/08 12:13:24;;;;;;;6.93;6.20;;;20.50;99.90;;;;;;5012749;28;21104;-63
2023/10/08 12:16:02;;;;;;;10.40;6.63;;;20.50;99.90;;;;;;5012984;28;20499;-64
2023/10/08 12:18:30;;;;;;;6.30;5.70;;;20.50;99.90;;;;;;5012589;28;20455;-64
2023/10/08 12:20:56;;;;;;;8.87;5.80;;;20.60;99.90;;;;;;5012333;28;20471;-64
2023/10/08 12:23:25;;;;;;;6.57;6.00;;;20.60;99.90;;;;;;5013052;28;20488;-63
2023/10/08 12:25:55;;;;;;;6.73;6.00;;;20.70;99.90;;;;;;5012705;28;20838;-63
2023/10/08 12:28:23;;;;;;;7.17;6.47;;;20.70;99.90;;;;;;5012474;28;20443;-63
2023/10/08 12:30:52;;;;;;;9.33;7.10;;;20.70;99.90;;;;;;5012753;28;20536;-63
2023/10/08 12:33:19;;;;;;;6.60;5.90;;;20.80;99.90;;;;;;5012564;28;20448;-63
2023/10/08 12:35:47;;;;;;;9.17;5.67;;;20.80;99.90;;;;;;5012937;28;20518;-64
2023/10/08 12:38:14;;;;;;;7.00;6.43;;;20.80;99.90;;;;;;5012185;28;20448;-63
2023/10/08 12:40:52;;;;;;;11.70;6.80;;;20.70;99.90;;;;;;5012726;28;20533;-64
2023/10/08 12:43:20;;;;;;;12.57;6.50;;;20.70;99.90;;;;;;5012678;28;20448;-63
2023/10/08 12:45:51;;;;;;;7.93;6.50;;;20.70;99.90;;;;;;5012394;28;20947;-64
2023/10/08 12:48:24;;;;;;;7.80;6.17;;;20.70;99.90;;;;;;5012146;28;20827;-64
2023/10/08 12:50:56;;;;;;;6.33;5.70;;;20.60;99.90;;;;;;5012473;28;20511;-63
2023/10/08 12:53:33;;;;;;;7.80;5.90;;;20.60;99.90;;;;;;5012133;28;20944;-63
2023/10/08 12:56:05;;;;;;;7.67;6.60;;;20.50;99.90;;;;;;5012539;28;20501;-63
2023/10/08 12:58:38;;;;;;;7.73;5.83;;;20.50;99.90;;;;;;5012055;28;20453;-63
2023/10/08 13:01:09;;;;;;;8.57;5.63;;;20.50;99.90;;;;;;5012203;28;20489;-64
2023/10/08 13:03:41;;;;;;;7.93;6.30;;;20.50;99.90;;;;;;5012038;28;20519;-63
2023/10/08 13:06:11;;;;;;;11.10;6.87;;;20.50;99.90;;;;;;5010860;28;20464;-64
2023/10/08 13:08:38;;;;;;;7.83;5.87;;;20.50;99.90;;;;;;5011138;28;20539;-64
2023/10/08 13:11:05;;;;;;;7.03;6.27;;;20.50;99.90;;;;;;5011107;28;20463;-64
2023/10/08 13:13:32;;;;;;;6.83;6.20;;;20.40;99.90;;;;;;5011349;28;20502;-64
2023/10/08 13:16:02;;;;;;;8.53;6.60;;;20.40;99.90;;;;;;5011890;28;20444;-64
2023/10/08 13:18:30;;;;;;;6.83;6.10;;;20.40;99.90;;;;;;5010544;28;20887;-64
2023/10/08 13:20:58;;;;;;;5.67;5.10;;;20.40;99.90;;;;;;5011629;28;20471;-64
2023/10/08 13:23:25;;;;;;;7.30;6.57;;;20.40;99.90;;;;;;5011849;28;20509;-64
2023/10/08 13:25:54;;;;;;;7.63;6.83;;;20.40;99.90;;;;;;5034990;23;20506;-64
2023/10/08 13:28:22;;;;;;;8.23;6.90;;;20.50;99.90;;;;;;5011192;28;20447;-63
2023/10/08 13:30:52;;;;;;;9.77;6.50;;;20.60;99.90;;;;;;5012375;28;20916;-64